Time;durP1;ratioP1;P1;durP2;ratioP2;P2;SDS_P1;SDS_P2;PMS_P1;PMS_P2;Temp;Humidity;BMP_temperature;BMP_pressure;BME280_temperature;BME280_humidity;BME280_pressure;Samples;Min_cycle;Max_cycle;Signal;HPM_P1;HPM_P2
2023/03/27 00:02:19;;;;;;;8.70;8.30;;;21.60;53.80;;;;;;5012971;28;20573;-49
2023/03/27 00:04:46;;;;;;;7.67;7.47;;;21.60;53.70;;;;;;5012839;28;20568;-49
2023/03/27 00:07:12;;;;;;;9.17;8.67;;;21.60;53.70;;;;;;5012601;28;20533;-49
2023/03/27 00:09:42;;;;;;;8.23;7.63;;;21.60;53.70;;;;;;5013098;28;20482;-49
2023/03/27 00:12:11;;;;;;;8.37;8.17;;;21.60;53.70;;;;;;5013053;28;20507;-49
2023/03/27 00:14:38;;;;;;;8.00;7.70;;;21.60;53.70;;;;;;5012796;28;20580;-49
2023/03/27 00:17:05;;;;;;;7.67;7.47;;;21.60;53.70;;;;;;5012354;28;20482;-49
2023/03/27 00:19:32;;;;;;;7.90;7.70;;;21.70;53.80;;;;;;5012794;28;20529;-49
2023/03/27 00:21:59;;;;;;;8.83;8.40;;;21.60;53.70;;;;;;5012634;28;20482;-49
2023/03/27 00:24:27;;;;;;;7.93;7.73;;;21.60;53.60;;;;;;5012380;28;20477;-52
2023/03/27 00:26:54;;;;;;;7.73;7.53;;;21.60;53.70;;;;;;5012359;28;20480;-49
2023/03/27 00:29:22;;;;;;;7.63;7.40;;;21.60;53.70;;;;;;5012517;28;20457;-49
2023/03/27 00:31:49;;;;;;;8.27;7.87;;;21.60;53.70;;;;;;5012493;28;20442;-49
2023/03/27 00:34:16;;;;;;;8.53;8.23;;;21.60;53.60;;;;;;5012452;28;20991;-49
2023/03/27 00:36:47;;;;;;;9.00;8.80;;;21.60;53.60;;;;;;5012249;28;20541;-51
2023/03/27 00:39:15;;;;;;;8.73;8.50;;;21.60;53.70;;;;;;5012451;28;20446;-51
2023/03/27 00:41:43;;;;;;;8.53;8.20;;;21.60;53.70;;;;;;5012388;28;20844;-49
2023/03/27 00:44:30;;;;;;;8.00;7.80;;;21.60;53.60;;;;;;5012370;28;20470;-49
2023/03/27 00:46:57;;;;;;;8.37;8.10;;;21.60;53.60;;;;;;5011635;28;20490;-50
2023/03/27 00:49:28;;;;;;;8.33;8.10;;;21.60;53.60;;;;;;5012248;28;20537;-49
2023/03/27 00:51:57;;;;;;;8.43;7.93;;;21.50;53.60;;;;;;5012207;28;20437;-53
2023/03/27 00:54:30;;;;;;;8.37;8.07;;;21.50;53.50;;;;;;5012201;28;20500;-49
2023/03/27 00:57:00;;;;;;;9.27;8.97;;;21.50;53.50;;;;;;5011989;28;20460;-49
2023/03/27 00:59:33;;;;;;;8.10;7.90;;;21.50;53.60;;;;;;5012123;28;20477;-52
2023/03/27 01:02:02;;;;;;;8.63;8.33;;;21.50;53.50;;;;;;5011930;28;20482;-49
2023/03/27 01:04:30;;;;;;;8.70;8.40;;;21.50;53.40;;;;;;5011941;28;20509;-49
2023/03/27 01:06:59;;;;;;;8.73;8.43;;;21.50;53.40;;;;;;5011778;28;20478;-51
2023/03/27 01:09:26;;;;;;;8.93;8.33;;;21.50;53.40;;;;;;5011856;28;20458;-52
2023/03/27 01:12:08;;;;;;;9.07;8.77;;;21.50;53.30;;;;;;5012086;28;20925;-50
2023/03/27 01:14:45;;;;;;;8.70;8.30;;;21.50;53.30;;;;;;5011774;28;20919;-50
2023/03/27 01:17:33;;;;;;;8.20;7.90;;;21.50;53.30;;;;;;5011948;28;20553;-50
2023/03/27 01:20:37;;;;;;;9.03;8.73;;;21.50;53.20;;;;;;5012001;28;20445;-49
2023/03/27 01:23:31;;;;;;;8.83;8.53;;;21.50;53.20;;;;;;5011871;28;20884;-51
2023/03/27 01:26:37;;;;;;;8.60;8.30;;;21.50;53.70;;;;;;5011490;28;20458;-50
2023/03/27 01:29:11;;;;;;;8.23;7.83;;;21.50;53.20;;;;;;4950990;29;20476;-49
2023/03/27 01:32:06;;;;;;;8.20;8.00;;;21.50;53.20;;;;;;5000464;28;20449;-49
2023/03/27 01:34:56;;;;;;;8.37;7.97;;;21.50;53.20;;;;;;5011641;28;20462;-49
2023/03/27 01:37:57;;;;;;;7.90;7.70;;;21.50;53.20;;;;;;5015038;28;20863;-54
2023/03/27 01:40:30;;;;;;;8.90;8.50;;;21.40;53.20;;;;;;5015855;28;20464;-50
2023/03/27 01:43:02;;;;;;;7.73;7.63;;;21.50;53.20;;;;;;5015687;28;20524;-53
2023/03/27 01:45:36;;;;;;;8.10;7.90;;;21.50;53.20;;;;;;5015492;28;20870;-53
2023/03/27 01:48:07;;;;;;;7.77;7.53;;;21.50;53.10;;;;;;5015506;28;20524;-50
2023/03/27 01:50:40;;;;;;;7.93;7.60;;;21.50;53.10;;;;;;5015665;28;20476;-54
2023/03/27 01:53:13;;;;;;;8.57;8.17;;;21.50;53.10;;;;;;5015415;28;20499;-56
2023/03/27 01:55:46;;;;;;;8.13;7.83;;;21.50;53.10;;;;;;5015355;28;20478;-51
2023/03/27 01:58:17;;;;;;;8.03;7.83;;;21.50;53.10;;;;;;5015284;28;20476;-52
2023/03/27 02:00:46;;;;;;;8.30;7.90;;;21.50;53.10;;;;;;5015053;28;20484;-53
2023/03/27 02:03:17;;;;;;;7.70;7.60;;;21.50;53.00;;;;;;5015298;28;20935;-56
2023/03/27 02:05:48;;;;;;;9.30;8.90;;;21.50;53.00;;;;;;5016719;28;20529;-55
2023/03/27 02:08:18;;;;;;;8.27;8.07;;;21.50;53.00;;;;;;5014991;28;20536;-55
2023/03/27 02:10:51;;;;;;;8.63;8.33;;;21.40;52.80;;;;;;5015394;28;20477;-52
2023/03/27 02:13:23;;;;;;;8.40;8.00;;;21.50;52.90;;;;;;5014967;28;20549;-55
2023/03/27 02:15:51;;;;;;;8.60;8.40;;;21.40;52.70;;;;;;5015187;28;20542;-52
2023/03/27 02:18:25;;;;;;;8.27;8.00;;;21.40;52.80;;;;;;5014686;28;20902;-52
2023/03/27 02:20:51;;;;;;;9.67;9.37;;;21.40;52.90;;;;;;5015062;28;20895;-51
2023/03/27 02:23:21;;;;;;;8.73;8.43;;;21.40;52.90;;;;;;5014988;28;20497;-51
2023/03/27 02:25:53;;;;;;;8.47;8.17;;;21.40;52.90;;;;;;5015097;28;20449;-52
2023/03/27 02:28:35;;;;;;;8.70;8.40;;;21.40;52.90;;;;;;5014401;28;20533;-52
2023/03/27 02:31:11;;;;;;;8.50;8.20;;;21.40;52.90;;;;;;5015160;28;20852;-51
2023/03/27 02:33:50;;;;;;;7.80;7.60;;;21.40;52.90;;;;;;5015221;28;20462;-52
2023/03/27 02:36:30;;;;;;;7.73;7.63;;;21.40;52.90;;;;;;5015156;28;20476;-51
2023/03/27 02:39:03;;;;;;;8.13;7.93;;;21.40;52.80;;;;;;5014431;28;20477;-52
2023/03/27 02:41:38;;;;;;;9.53;8.60;;;21.40;52.80;;;;;;5014808;28;21171;-52
2023/03/27 02:44:12;;;;;;;7.90;7.70;;;21.40;52.80;;;;;;5014696;28;20549;-51
2023/03/27 02:46:45;;;;;;;8.77;8.57;;;21.40;52.80;;;;;;5014651;28;20449;-52
2023/03/27 02:49:18;;;;;;;8.00;7.80;;;21.40;52.70;;;;;;5014101;28;20481;-53
2023/03/27 02:51:51;;;;;;;8.53;8.33;;;21.40;52.70;;;;;;5014588;28;20517;-51
2023/03/27 02:54:21;;;;;;;8.37;8.07;;;21.40;52.60;;;;;;5014318;28;20501;-53
2023/03/27 02:56:54;;;;;;;8.60;8.37;;;21.40;52.60;;;;;;5014399;28;20470;-52
2023/03/27 02:59:25;;;;;;;8.20;8.00;;;21.40;52.60;;;;;;5014137;28;20885;-52
2023/03/27 03:01:53;;;;;;;7.87;7.77;;;21.40;52.60;;;;;;5014289;28;20577;-52
2023/03/27 03:04:23;;;;;;;8.20;8.00;;;21.30;52.50;;;;;;5014126;28;20482;-50
2023/03/27 03:06:52;;;;;;;7.93;7.63;;;21.30;52.50;;;;;;5014409;28;20474;-51
2023/03/27 03:09:20;;;;;;;8.67;8.37;;;21.30;52.60;;;;;;5014144;28;21040;-52
2023/03/27 03:11:51;;;;;;;9.00;8.70;;;21.30;52.60;;;;;;5013825;28;20537;-53
2023/03/27 03:14:20;;;;;;;8.90;8.50;;;21.30;52.60;;;;;;5014104;28;20470;-55
2023/03/27 03:16:47;;;;;;;8.80;8.50;;;21.30;52.60;;;;;;5014082;28;20460;-52
2023/03/27 03:19:14;;;;;;;8.17;7.87;;;21.30;52.60;;;;;;5013856;28;20489;-51
2023/03/27 03:21:41;;;;;;;8.10;7.90;;;21.30;52.50;;;;;;5013647;28;21003;-51
2023/03/27 03:24:09;;;;;;;7.73;7.53;;;21.30;52.50;;;;;;5013176;28;20497;-55
2023/03/27 03:26:36;;;;;;;9.03;8.73;;;21.30;52.50;;;;;;5013735;28;20496;-52
2023/03/27 03:29:05;;;;;;;8.70;8.37;;;21.30;52.50;;;;;;5013993;28;20539;-53
2023/03/27 03:31:41;;;;;;;7.60;7.50;;;21.30;52.50;;;;;;5013828;28;20481;-52
2023/03/27 03:34:08;;;;;;;9.10;8.60;;;21.30;52.50;;;;;;5013843;28;20918;-51
2023/03/27 03:36:35;;;;;;;8.20;8.00;;;21.30;52.50;;;;;;5013780;28;20480;-52
2023/03/27 03:39:03;;;;;;;7.60;7.40;;;21.30;52.40;;;;;;5013470;28;21078;-55
2023/03/27 03:41:29;;;;;;;7.87;7.67;;;21.30;52.40;;;;;;5013165;28;20477;-51
2023/03/27 03:43:56;;;;;;;8.30;8.07;;;21.30;52.40;;;;;;5013425;28;20497;-51
2023/03/27 03:46:25;;;;;;;7.67;7.47;;;21.30;52.50;;;;;;5013485;28;20533;-51
2023/03/27 03:48:52;;;;;;;7.97;7.70;;;21.30;52.50;;;;;;5013259;28;20457;-52
2023/03/27 03:51:18;;;;;;;7.57;7.37;;;21.30;52.50;;;;;;5013391;28;20492;-54
2023/03/27 03:53:45;;;;;;;8.27;8.03;;;21.30;52.50;;;;;;5013034;28;20548;-52
2023/03/27 03:56:12;;;;;;;8.77;8.47;;;21.30;52.50;;;;;;5013382;28;20538;-52
2023/03/27 03:58:39;;;;;;;8.27;7.97;;;21.30;52.40;;;;;;5012635;28;20634;-55
2023/03/27 04:01:07;;;;;;;8.30;7.80;;;21.30;52.40;;;;;;5013394;28;20540;-54
2023/03/27 04:03:36;;;;;;;8.43;8.13;;;21.30;52.40;;;;;;5013077;28;20490;-54
2023/03/27 04:06:06;;;;;;;7.83;7.63;;;21.30;52.40;;;;;;5012863;28;20450;-55
2023/03/27 04:08:34;;;;;;;8.00;7.80;;;21.30;52.30;;;;;;5012822;28;20450;-56
2023/03/27 04:11:01;;;;;;;11.00;9.17;;;21.40;52.30;;;;;;5012943;28;20536;-52
2023/03/27 04:13:28;;;;;;;8.50;8.20;;;21.40;52.30;;;;;;5012558;28;20553;-56
2023/03/27 04:15:54;;;;;;;9.40;9.20;;;21.40;52.30;;;;;;5012960;28;20538;-55
2023/03/27 04:18:23;;;;;;;8.53;8.33;;;21.40;52.20;;;;;;5012590;28;20529;-55
2023/03/27 04:20:53;;;;;;;9.07;8.77;;;21.40;52.20;;;;;;5012905;28;20457;-56
2023/03/27 04:23:20;;;;;;;8.80;8.60;;;21.40;52.10;;;;;;5012373;28;20899;-55
2023/03/27 04:25:46;;;;;;;8.00;7.90;;;21.40;52.10;;;;;;5012829;28;20533;-53
2023/03/27 04:28:15;;;;;;;8.63;8.03;;;21.40;52.00;;;;;;5012547;28;20541;-51
2023/03/27 04:30:43;;;;;;;9.10;8.90;;;21.40;52.00;;;;;;5012919;28;20812;-56
2023/03/27 04:33:17;;;;;;;8.70;8.50;;;21.40;51.90;;;;;;5012297;28;20446;-51
2023/03/27 04:35:44;;;;;;;8.60;8.40;;;21.30;51.90;;;;;;5012702;28;20453;-52
2023/03/27 04:38:13;;;;;;;9.10;8.60;;;21.40;52.00;;;;;;5012518;28;20935;-53
2023/03/27 04:40:45;;;;;;;9.23;8.93;;;21.40;52.10;;;;;;5012423;28;20536;-53
2023/03/27 04:43:12;;;;;;;8.27;7.97;;;21.40;52.20;;;;;;5012327;28;20485;-56
2023/03/27 04:45:39;;;;;;;8.60;8.40;;;21.40;52.20;;;;;;5012424;28;20532;-52
2023/03/27 04:48:06;;;;;;;7.87;7.67;;;21.40;52.20;;;;;;5012284;28;20484;-55
2023/03/27 04:50:34;;;;;;;8.07;7.90;;;21.40;52.30;;;;;;5012347;28;20533;-54
2023/03/27 04:53:02;;;;;;;8.73;8.40;;;21.40;52.20;;;;;;5012321;28;20442;-54
2023/03/27 04:55:36;;;;;;;8.03;7.83;;;21.40;52.20;;;;;;5011971;28;20456;-55
2023/03/27 04:58:04;;;;;;;8.33;8.13;;;21.40;52.20;;;;;;5012028;28;20446;-56
2023/03/27 05:00:31;;;;;;;8.23;8.03;;;21.50;52.10;;;;;;5012236;28;20453;-56
2023/03/27 05:02:59;;;;;;;9.13;8.67;;;21.50;52.10;;;;;;5012024;28;20513;-52
2023/03/27 05:05:26;;;;;;;9.83;9.43;;;21.50;52.70;;;;;;5012192;28;20481;-51
2023/03/27 05:07:54;;;;;;;8.93;8.60;;;21.50;52.40;;;;;;5011772;28;20815;-53
2023/03/27 05:10:21;;;;;;;9.30;8.70;;;21.50;52.70;;;;;;5011360;28;20484;-52
2023/03/27 05:12:51;;;;;;;10.20;9.70;;;21.60;53.20;;;;;;5012170;28;20496;-51
2023/03/27 05:15:18;;;;;;;10.20;9.40;;;21.60;53.70;;;;;;5012152;28;20464;-51
2023/03/27 05:17:51;;;;;;;12.67;10.67;;;21.60;54.40;;;;;;5011751;28;20880;-51
2023/03/27 05:20:19;;;;;;;11.03;10.23;;;21.60;55.30;;;;;;5011917;28;20497;-53
2023/03/27 05:22:47;;;;;;;10.83;9.87;;;21.60;55.90;;;;;;5011924;28;20492;-55
2023/03/27 05:25:14;;;;;;;11.97;10.87;;;21.60;56.70;;;;;;5011447;28;20462;-60
2023/03/27 05:27:45;;;;;;;10.30;9.50;;;21.70;57.60;;;;;;5008563;28;20533;-57
2023/03/27 05:30:14;;;;;;;11.57;10.47;;;21.60;57.70;;;;;;5011360;28;20545;-60
2023/03/27 05:32:47;;;;;;;11.37;10.20;;;21.70;58.60;;;;;;5011902;28;20819;-57
2023/03/27 05:35:15;;;;;;;11.53;9.57;;;21.80;58.60;;;;;;5012075;28;21009;-59
2023/03/27 05:37:46;;;;;;;10.50;9.80;;;21.80;58.20;;;;;;5011566;28;20509;-58
2023/03/27 05:40:14;;;;;;;12.83;11.70;;;21.80;57.70;;;;;;5011855;28;20550;-59
2023/03/27 05:42:43;;;;;;;11.10;10.17;;;21.90;57.40;;;;;;5011714;28;20492;-58
2023/03/27 05:45:10;;;;;;;11.27;10.40;;;21.90;56.90;;;;;;5011800;28;20462;-58
2023/03/27 05:47:45;;;;;;;10.63;9.83;;;21.90;57.10;;;;;;5011553;28;20486;-59
2023/03/27 05:50:13;;;;;;;11.33;10.43;;;21.90;56.20;;;;;;5011649;28;20445;-59
2023/03/27 05:52:40;;;;;;;10.10;9.60;;;21.90;55.90;;;;;;5011738;28;20450;-59
2023/03/27 05:55:09;;;;;;;11.13;10.33;;;21.90;55.60;;;;;;5011493;28;20493;-59
2023/03/27 05:57:38;;;;;;;9.97;9.47;;;22.00;55.40;;;;;;5011352;28;20932;-59
2023/03/27 06:00:10;;;;;;;10.17;9.73;;;21.90;55.10;;;;;;5011686;28;20454;-56
2023/03/27 06:02:37;;;;;;;10.13;9.50;;;21.90;54.90;;;;;;5011542;28;20939;-59
2023/03/27 06:05:09;;;;;;;11.03;10.17;;;21.90;54.70;;;;;;5011569;28;20509;-60
2023/03/27 06:07:37;;;;;;;12.67;11.77;;;21.90;54.60;;;;;;5011362;28;20453;-59
2023/03/27 06:10:04;;;;;;;11.10;10.10;;;21.90;54.40;;;;;;5011648;28;20990;-58
2023/03/27 06:12:31;;;;;;;10.00;9.50;;;21.90;54.30;;;;;;5011361;28;20446;-58
2023/03/27 06:14:58;;;;;;;9.97;9.47;;;21.80;54.10;;;;;;5011396;28;20556;-58
2023/03/27 06:17:25;;;;;;;10.80;10.13;;;21.80;54.00;;;;;;5011227;28;20524;-58
2023/03/27 06:19:52;;;;;;;10.73;10.10;;;21.80;54.00;;;;;;5011356;28;20478;-56
2023/03/27 06:22:20;;;;;;;11.50;10.80;;;21.80;53.90;;;;;;5012987;28;20581;-58
2023/03/27 06:24:47;;;;;;;9.40;9.10;;;21.80;53.90;;;;;;5014907;28;20553;-58
2023/03/27 06:27:14;;;;;;;11.10;10.40;;;21.80;53.80;;;;;;5014817;28;20456;-58
2023/03/27 06:29:41;;;;;;;10.93;10.23;;;21.70;53.60;;;;;;5015241;28;20975;-60
2023/03/27 06:32:08;;;;;;;11.33;10.83;;;21.70;54.10;;;;;;5014864;28;20867;-59
2023/03/27 06:34:35;;;;;;;9.50;9.10;;;21.70;53.50;;;;;;5014778;28;20976;-59
2023/03/27 06:37:03;;;;;;;9.93;9.43;;;21.70;54.00;;;;;;5014604;28;21003;-60
2023/03/27 06:39:32;;;;;;;9.17;8.80;;;21.70;53.40;;;;;;5014576;28;20450;-60
2023/03/27 06:41:59;;;;;;;10.30;9.80;;;21.70;53.30;;;;;;5014761;28;20474;-60
2023/03/27 06:44:26;;;;;;;11.10;10.57;;;21.60;53.20;;;;;;5014380;28;20485;-60
2023/03/27 06:46:53;;;;;;;10.90;10.30;;;21.60;53.10;;;;;;5014534;28;21087;-59
2023/03/27 06:49:20;;;;;;;10.73;10.27;;;21.60;53.10;;;;;;5014250;28;20871;-60
2023/03/27 06:51:46;;;;;;;10.67;10.27;;;21.60;53.00;;;;;;5014435;28;20446;-60
2023/03/27 06:54:13;;;;;;;10.97;10.27;;;21.60;53.00;;;;;;5014367;28;20553;-60
2023/03/27 06:56:43;;;;;;;11.37;10.63;;;21.50;52.80;;;;;;5014329;28;20545;-60
2023/03/27 06:59:10;;;;;;;9.93;9.43;;;21.50;52.80;;;;;;5014258;28;20454;-60
2023/03/27 07:01:37;;;;;;;9.10;8.80;;;21.50;53.30;;;;;;5014291;28;20449;-60
2023/03/27 07:04:05;;;;;;;9.73;9.33;;;21.50;52.70;;;;;;5013998;28;20568;-60
2023/03/27 07:06:32;;;;;;;11.33;10.77;;;21.50;52.60;;;;;;5014154;28;20450;-56
2023/03/27 07:08:59;;;;;;;9.23;8.93;;;21.50;52.60;;;;;;5013853;28;20537;-59
2023/03/27 07:11:26;;;;;;;9.80;9.30;;;21.50;52.60;;;;;;5014101;28;20492;-57
2023/03/27 07:13:54;;;;;;;10.70;10.20;;;21.40;52.50;;;;;;5014261;28;20560;-60
2023/03/27 07:16:21;;;;;;;9.90;9.60;;;21.40;52.40;;;;;;5013992;28;20540;-59
2023/03/27 07:18:48;;;;;;;9.60;9.30;;;21.40;52.40;;;;;;5013796;28;20532;-58
2023/03/27 07:21:15;;;;;;;10.37;9.90;;;21.40;52.40;;;;;;5013982;28;20485;-59
2023/03/27 07:23:42;;;;;;;10.90;10.40;;;21.40;52.30;;;;;;5013708;28;20485;-60
2023/03/27 07:26:09;;;;;;;9.70;9.30;;;21.30;52.20;;;;;;5013817;28;20529;-58
2023/03/27 07:28:37;;;;;;;9.30;9.00;;;21.30;52.20;;;;;;5013703;28;20541;-56
2023/03/27 07:31:09;;;;;;;9.07;8.87;;;21.30;52.20;;;;;;5013649;28;20446;-57
2023/03/27 07:33:37;;;;;;;9.53;9.23;;;21.20;52.00;;;;;;5012833;28;20473;-57
2023/03/27 07:36:07;;;;;;;10.00;9.50;;;21.20;52.10;;;;;;5013915;28;20512;-60
2023/03/27 07:38:34;;;;;;;10.10;9.80;;;21.20;52.10;;;;;;5013388;28;20879;-57
2023/03/27 07:41:05;;;;;;;9.37;9.07;;;21.20;52.10;;;;;;5013456;28;20529;-59
2023/03/27 07:43:33;;;;;;;11.00;10.60;;;21.20;52.10;;;;;;5013362;28;20489;-59
2023/03/27 07:46:00;;;;;;;9.53;9.23;;;21.20;52.00;;;;;;5013600;28;20473;-59
2023/03/27 07:48:29;;;;;;;9.77;9.27;;;21.20;52.00;;;;;;5013272;28;20482;-58
2023/03/27 07:50:59;;;;;;;8.83;8.53;;;21.30;52.00;;;;;;5013312;28;21035;-56
2023/03/27 07:53:26;;;;;;;9.93;9.63;;;21.30;51.90;;;;;;5013264;28;20873;-58
2023/03/27 07:55:53;;;;;;;9.87;9.57;;;21.30;51.80;;;;;;5013275;28;20939;-58
2023/03/27 07:58:21;;;;;;;9.07;8.87;;;21.30;51.70;;;;;;5012991;28;20806;-58
2023/03/27 08:00:50;;;;;;;9.90;9.60;;;21.30;51.70;;;;;;5013454;28;20446;-58
2023/03/27 08:03:17;;;;;;;10.00;9.60;;;21.30;51.70;;;;;;5012920;28;20655;-58
2023/03/27 08:05:52;;;;;;;9.23;9.03;;;21.30;51.60;;;;;;5013896;28;20480;-61
2023/03/27 08:08:19;;;;;;;9.60;9.30;;;21.30;51.60;;;;;;5013031;28;20592;-60
2023/03/27 08:10:46;;;;;;;10.30;10.00;;;21.30;51.60;;;;;;5013041;28;20457;-61
2023/03/27 08:13:13;;;;;;;9.70;9.50;;;21.30;51.60;;;;;;5012849;28;20438;-61
2023/03/27 08:15:40;;;;;;;9.70;9.40;;;21.30;51.60;;;;;;5012897;28;20549;-61
2023/03/27 08:18:07;;;;;;;9.10;8.90;;;21.30;51.60;;;;;;5012734;28;20512;-61
2023/03/27 08:20:34;;;;;;;10.43;9.93;;;21.30;51.50;;;;;;5012745;28;20484;-61
2023/03/27 08:23:03;;;;;;;9.70;9.40;;;21.30;51.40;;;;;;5012635;28;20489;-61
2023/03/27 08:25:31;;;;;;;9.87;9.67;;;21.20;51.30;;;;;;5012765;28;20530;-61
2023/03/27 08:27:58;;;;;;;9.70;9.40;;;21.20;51.30;;;;;;5012637;28;20456;-60
2023/03/27 08:30:26;;;;;;;10.10;9.80;;;21.20;51.20;;;;;;5012720;28;20537;-60
2023/03/27 08:32:52;;;;;;;9.93;9.73;;;21.20;51.10;;;;;;5012740;28;20473;-60
2023/03/27 08:35:19;;;;;;;10.73;10.23;;;21.20;51.10;;;;;;5012502;28;20466;-61
2023/03/27 08:37:46;;;;;;;10.20;9.90;;;21.20;51.10;;;;;;5012466;28;20480;-61
2023/03/27 08:40:20;;;;;;;9.70;9.40;;;21.20;51.10;;;;;;5012738;28;20508;-57
2023/03/27 08:42:52;;;;;;;9.40;9.20;;;21.20;51.00;;;;;;5012468;28;20450;-59
2023/03/27 08:45:24;;;;;;;9.97;9.67;;;21.20;51.00;;;;;;5012679;28;20531;-60
2023/03/27 08:47:56;;;;;;;9.70;9.50;;;21.20;51.10;;;;;;5012645;28;20446;-61
2023/03/27 08:50:31;;;;;;;11.00;10.50;;;21.10;50.90;;;;;;5012487;28;20533;-61
2023/03/27 08:52:59;;;;;;;8.97;8.77;;;21.10;51.00;;;;;;5012283;28;20445;-62
2023/03/27 08:55:38;;;;;;;10.87;10.53;;;21.10;50.90;;;;;;5012261;28;20478;-61
2023/03/27 08:58:04;;;;;;;10.50;10.00;;;21.10;50.90;;;;;;5012116;28;20441;-61
2023/03/27 09:00:37;;;;;;;10.57;10.27;;;21.10;50.80;;;;;;5012266;28;20504;-61
2023/03/27 09:03:13;;;;;;;9.30;9.10;;;21.10;50.80;;;;;;5011835;28;20979;-61
2023/03/27 09:05:44;;;;;;;9.57;9.30;;;21.00;50.60;;;;;;5012023;28;20545;-61
2023/03/27 09:08:22;;;;;;;9.53;9.33;;;21.00;50.50;;;;;;5012080;28;20446;-61
2023/03/27 09:10:58;;;;;;;10.03;9.73;;;21.00;50.50;;;;;;5012266;28;20476;-59
2023/03/27 09:13:31;;;;;;;9.50;9.20;;;21.00;50.40;;;;;;5012249;28;20466;-60
2023/03/27 09:16:02;;;;;;;9.43;9.17;;;21.00;50.50;;;;;;5012015;28;20529;-61
2023/03/27 09:18:34;;;;;;;9.50;9.30;;;21.00;50.50;;;;;;5011863;28;20446;-61
2023/03/27 09:21:07;;;;;;;9.87;9.57;;;21.00;50.50;;;;;;5012169;28;20947;-60
2023/03/27 09:23:39;;;;;;;10.40;10.10;;;21.00;50.50;;;;;;5011874;28;20489;-61
2023/03/27 09:26:12;;;;;;;9.73;9.43;;;21.00;50.50;;;;;;5011919;28;20529;-61
2023/03/27 09:28:49;;;;;;;9.50;9.30;;;21.00;50.50;;;;;;5011772;28;20457;-61
2023/03/27 09:31:23;;;;;;;9.97;9.77;;;21.00;50.50;;;;;;5011891;28;20446;-60
2023/03/27 09:33:51;;;;;;;9.60;9.30;;;21.00;50.50;;;;;;5011599;28;20462;-61
2023/03/27 09:36:18;;;;;;;9.13;8.83;;;21.00;50.40;;;;;;5011817;28;20450;-61
2023/03/27 09:38:49;;;;;;;9.83;9.63;;;21.00;50.40;;;;;;5011652;28;20518;-60
2023/03/27 09:41:21;;;;;;;9.60;9.40;;;21.00;50.40;;;;;;5011799;28;20450;-61
2023/03/27 09:43:54;;;;;;;9.80;9.60;;;21.00;50.30;;;;;;5011515;28;20493;-61
2023/03/27 09:46:23;;;;;;;9.77;9.40;;;21.10;50.30;;;;;;5011703;28;20533;-59
2023/03/27 09:48:57;;;;;;;9.80;9.50;;;21.00;50.20;;;;;;5011461;28;20481;-60
2023/03/27 09:51:40;;;;;;;9.50;9.10;;;21.10;50.20;;;;;;5011621;28;20528;-61
2023/03/27 09:54:08;;;;;;;9.90;9.70;;;21.00;50.10;;;;;;5011793;28;20462;-61
2023/03/27 09:56:40;;;;;;;9.27;9.07;;;21.00;50.20;;;;;;5012101;28;20923;-59
2023/03/27 09:59:23;;;;;;;9.23;9.03;;;21.00;50.20;;;;;;5015415;28;20446;-60
2023/03/27 10:01:52;;;;;;;9.97;9.77;;;21.00;50.20;;;;;;5015363;28;20957;-61
2023/03/27 10:04:21;;;;;;;8.93;8.73;;;21.00;50.20;;;;;;5015192;28;21010;-61
2023/03/27 10:06:56;;;;;;;9.40;9.00;;;21.00;50.20;;;;;;5015436;28;20452;-61
2023/03/27 10:09:26;;;;;;;8.80;8.60;;;21.00;50.20;;;;;;5015166;28;20446;-61
2023/03/27 10:12:04;;;;;;;9.10;8.90;;;21.00;50.20;;;;;;5015247;28;20460;-60
2023/03/27 10:14:34;;;;;;;9.77;9.47;;;21.00;50.10;;;;;;5015234;28;20959;-60
2023/03/27 10:17:01;;;;;;;9.73;9.53;;;21.00;50.10;;;;;;5015049;28;20446;-61
2023/03/27 10:19:34;;;;;;;9.07;8.87;;;21.00;50.00;;;;;;5014936;28;20454;-61
2023/03/27 10:22:09;;;;;;;9.80;9.60;;;21.00;50.00;;;;;;5015091;28;20449;-61
2023/03/27 10:24:38;;;;;;;10.07;9.77;;;21.00;50.00;;;;;;5014833;28;20527;-60
2023/03/27 10:27:08;;;;;;;9.70;9.40;;;21.00;50.00;;;;;;5014926;28;20868;-61
2023/03/27 10:29:36;;;;;;;9.43;9.23;;;21.00;50.00;;;;;;5015245;28;20495;-61
2023/03/27 10:32:05;;;;;;;9.23;9.03;;;20.90;49.90;;;;;;5014756;28;20529;-61
2023/03/27 10:34:38;;;;;;;9.60;9.27;;;21.00;49.90;;;;;;5014751;28;20553;-59
2023/03/27 10:37:20;;;;;;;9.17;8.87;;;20.90;49.80;;;;;;5014711;28;20450;-60
2023/03/27 10:39:47;;;;;;;9.00;8.80;;;20.90;49.80;;;;;;5014673;28;20503;-59
2023/03/27 10:42:17;;;;;;;9.10;8.90;;;20.90;49.80;;;;;;5014702;28;20449;-58
2023/03/27 10:44:47;;;;;;;9.10;8.90;;;20.90;49.70;;;;;;5014462;28;20492;-58
2023/03/27 10:47:22;;;;;;;9.27;9.07;;;20.90;49.70;;;;;;5014701;28;20445;-60
2023/03/27 10:49:57;;;;;;;9.10;8.90;;;20.90;49.70;;;;;;5014499;28;20485;-57
2023/03/27 10:52:29;;;;;;;9.10;8.90;;;20.90;49.70;;;;;;5014592;28;20484;-60
2023/03/27 10:55:11;;;;;;;9.40;9.20;;;20.90;49.60;;;;;;5014428;28;20466;-59
2023/03/27 10:57:42;;;;;;;9.20;9.00;;;20.90;49.50;;;;;;5014388;28;20862;-60
2023/03/27 11:00:17;;;;;;;9.07;8.87;;;20.90;49.50;;;;;;5014415;28;20529;-60
2023/03/27 11:02:50;;;;;;;9.30;9.10;;;20.90;49.40;;;;;;5014409;28;20445;-59
2023/03/27 11:05:22;;;;;;;9.53;9.33;;;20.90;49.30;;;;;;5014171;28;20493;-60
2023/03/27 11:07:53;;;;;;;9.03;8.83;;;20.90;49.20;;;;;;5013461;28;20504;-59
2023/03/27 11:10:23;;;;;;;9.53;9.23;;;20.90;49.10;;;;;;5013684;28;20457;-60
2023/03/27 11:12:56;;;;;;;10.10;9.50;;;20.90;49.20;;;;;;5014043;28;20537;-58
2023/03/27 11:15:28;;;;;;;10.10;9.80;;;20.90;49.10;;;;;;5014054;28;20553;-60
2023/03/27 11:18:00;;;;;;;8.80;8.60;;;21.00;49.20;;;;;;5013871;28;20481;-59
2023/03/27 11:20:31;;;;;;;9.40;9.20;;;21.00;49.10;;;;;;5013964;28;20450;-61
2023/03/27 11:23:04;;;;;;;9.30;9.10;;;21.00;49.10;;;;;;5013876;28;20446;-58
2023/03/27 11:25:39;;;;;;;8.87;8.57;;;21.00;49.00;;;;;;5013841;28;20481;-59
2023/03/27 11:28:18;;;;;;;8.60;8.40;;;21.00;49.00;;;;;;5013709;28;20442;-59
2023/03/27 11:30:51;;;;;;;8.50;8.30;;;20.90;48.90;;;;;;5013638;28;20792;-60
2023/03/27 11:33:32;;;;;;;8.50;8.30;;;21.00;49.00;;;;;;5013929;28;20504;-59
2023/03/27 11:36:07;;;;;;;8.80;8.60;;;20.90;48.90;;;;;;5013901;28;20442;-61
2023/03/27 11:38:38;;;;;;;9.13;8.93;;;20.90;48.90;;;;;;5013530;28;20477;-60
2023/03/27 11:41:06;;;;;;;8.50;8.30;;;21.00;49.10;;;;;;5013617;28;20482;-60
2023/03/27 11:43:39;;;;;;;8.70;8.50;;;20.90;49.00;;;;;;5013528;28;20839;-59
2023/03/27 11:46:20;;;;;;;9.33;9.10;;;20.90;49.00;;;;;;5013507;28;20438;-59
2023/03/27 11:49:10;;;;;;;9.60;9.30;;;20.90;49.10;;;;;;5013338;28;20951;-59
2023/03/27 11:51:52;;;;;;;8.80;8.60;;;20.90;49.10;;;;;;5013653;28;20453;-59
2023/03/27 11:54:31;;;;;;;8.80;8.60;;;20.90;49.10;;;;;;5013340;28;20466;-58
2023/03/27 11:57:01;;;;;;;9.20;9.00;;;20.90;49.10;;;;;;5013251;28;20618;-59
2023/03/27 11:59:52;;;;;;;8.83;8.63;;;20.90;49.10;;;;;;5013107;28;20529;-60
2023/03/27 12:02:56;;;;;;;9.30;9.10;;;20.90;49.10;;;;;;5013348;28;20505;-60
2023/03/27 12:05:31;;;;;;;9.10;8.90;;;20.90;49.10;;;;;;5012922;28;20528;-61
2023/03/27 12:08:06;;;;;;;9.40;9.20;;;20.90;49.60;;;;;;5012964;28;20485;-60
2023/03/27 12:10:34;;;;;;;9.80;9.50;;;20.90;49.10;;;;;;5013020;28;20480;-59
2023/03/27 12:13:33;;;;;;;9.10;8.90;;;20.90;49.10;;;;;;5012772;28;20458;-59
2023/03/27 12:16:17;;;;;;;9.30;9.10;;;20.90;49.10;;;;;;5013109;28;20962;-59
2023/03/27 12:18:58;;;;;;;9.00;8.80;;;20.90;49.10;;;;;;5012760;28;20528;-60
2023/03/27 12:21:50;;;;;;;9.30;9.10;;;20.90;49.10;;;;;;5012550;28;20446;-59
2023/03/27 12:24:33;;;;;;;9.50;9.30;;;20.90;49.10;;;;;;5012823;28;20478;-59
2023/03/27 12:27:36;;;;;;;9.20;9.00;;;20.90;49.10;;;;;;5012882;28;20851;-61
2023/03/27 12:30:17;;;;;;;8.90;8.70;;;20.90;49.10;;;;;;5012579;28;20974;-60
2023/03/27 12:33:00;;;;;;;9.30;9.10;;;20.90;49.10;;;;;;5012666;28;20537;-60
2023/03/27 12:35:30;;;;;;;9.40;9.20;;;20.90;49.10;;;;;;5012702;28;21019;-59
2023/03/27 12:38:00;;;;;;;9.30;9.10;;;20.90;49.10;;;;;;5012644;28;21007;-60
2023/03/27 12:40:30;;;;;;;10.87;10.57;;;21.00;49.20;;;;;;5012470;28;20473;-60
2023/03/27 12:43:09;;;;;;;10.07;9.87;;;21.00;49.20;;;;;;5012664;28;20530;-60
2023/03/27 12:45:37;;;;;;;9.53;9.33;;;21.00;49.20;;;;;;5012400;28;20481;-61
2023/03/27 12:48:24;;;;;;;9.87;9.67;;;21.00;49.20;;;;;;5012231;28;20541;-59
2023/03/27 12:50:56;;;;;;;9.90;9.70;;;21.00;49.20;;;;;;5012321;28;20442;-60
2023/03/27 12:53:50;;;;;;;10.03;9.73;;;21.00;49.30;;;;;;5012342;28;20998;-60
2023/03/27 12:56:36;;;;;;;9.20;9.00;;;21.00;49.30;;;;;;5012566;28;20441;-58
2023/03/27 12:59:14;;;;;;;8.60;8.40;;;21.00;49.30;;;;;;5012176;28;20446;-60
2023/03/27 13:02:18;;;;;;;8.60;8.40;;;21.00;49.30;;;;;;5012299;28;20477;-60
2023/03/27 13:05:11;;;;;;;9.20;9.00;;;21.00;49.30;;;;;;5011459;28;20530;-60
2023/03/27 13:07:44;;;;;;;8.83;8.63;;;21.10;49.40;;;;;;5011492;28;20529;-60